Clifford Maersk — OYRO2 — position and weather

sailwx.info

Track history (hours):
 
Tides and Currents Weather Stations Pressure Air Temp Water Temp Dewpoint Dewpoint Depression Visibility Wind Speed Wind Dir Waves Ship Positions

Clifford Maersk

Last reported at 2015-Aug-26 22:27 UTC. Time now 2015-Aug-29 23:40 UTC.
Position N 29°41' E 122°34'.

Type: Ship (hazmat cat A). MMSI: 219840000.

Date/timePositionNaut miles runAvg speedWind from/ knotsBaromVisibWave heightAir tempDewpointWater temp
2015-Aug-26 22:27N 29°41' E 122°34'1412.3
2015-Aug-26 21:18N 29°45' E 122°18'16 3.7
2015-Aug-26 17:06N 29°46' E 122°00'3 0.2
2015-Aug-26 06:05N 29°47' E 122°03'4 7.7
2015-Aug-26 05:31N 29°49' E 122°08'11 9.0
2015-Aug-26 04:17N 29°45' E 122°20'6 7.3
2015-Aug-26 03:28N 29°44' E 122°27'43 7.3
2015-Aug-25 21:29N 30°27' E 122°36'16 1.2
2015-Aug-25 08:18N 30°33' E 122°18'7 9.1
2015-Aug-25 07:32N 30°34' E 122°10'7 5.4
2015-Aug-25 06:17N 30°37' E 122°04'0 0.0
2015-Aug-24 06:14N 30°37' E 122°04'1 1.4
2015-Aug-24 05:31N 30°36' E 122°04'1210.5
2015-Aug-24 04:25N 30°33' E 122°17'2712.8
2015-Aug-24 02:16N 30°33' E 122°49'  
Track history (hours):
 
Tides and Currents Weather Stations Pressure Air Temp Water Temp Dewpoint Dewpoint Depression Visibility Wind Speed Wind Dir Waves Ship Positions

Clifford Maersk

Last reported at 2015-Aug-26 22:27 UTC. Time now 2015-Aug-29 23:40 UTC.
Position N 29°41' E 122°34'.

Type: Ship (hazmat cat A). MMSI: 219840000.

Date/timePositionNaut miles runAvg speedWind from/ knotsBaromVisibWave heightAir tempDewpointWater temp
2015-Aug-26 22:27N 29°41' E 122°34'1412.3
2015-Aug-26 21:18N 29°45' E 122°18'16 3.7
2015-Aug-26 17:06N 29°46' E 122°00'3 0.2
2015-Aug-26 06:05N 29°47' E 122°03'4 7.7
2015-Aug-26 05:31N 29°49' E 122°08'11 9.0
2015-Aug-26 04:17N 29°45' E 122°20'6 7.3
2015-Aug-26 03:28N 29°44' E 122°27'43 7.3
2015-Aug-25 21:29N 30°27' E 122°36'16 1.2
2015-Aug-25 08:18N 30°33' E 122°18'7 9.1
2015-Aug-25 07:32N 30°34' E 122°10'7 5.4
2015-Aug-25 06:17N 30°37' E 122°04'0 0.0
2015-Aug-24 06:14N 30°37' E 122°04'1 1.4
2015-Aug-24 05:31N 30°36' E 122°04'1210.5
2015-Aug-24 04:25N 30°33' E 122°17'2712.8
2015-Aug-24 02:16N 30°33' E 122°49'  

Dump ship's entire track history